sensor_id;sensor_type;location;lat;lon;timestamp;P1;durP1;ratioP1;P2;durP2;ratioP2
15385;SDS011;7791;47.246;9.648;2024-02-28T00:00:31;49.30;;;23.20;;
15385;SDS011;7791;47.246;9.648;2024-02-28T00:03:03;40.70;;;22.97;;
15385;SDS011;7791;47.246;9.648;2024-02-28T00:05:56;35.67;;;20.43;;
15385;SDS011;7791;47.246;9.648;2024-02-28T00:08:29;40.33;;;22.23;;
15385;SDS011;7791;47.246;9.648;2024-02-28T00:11:01;38.83;;;21.83;;
15385;SDS011;7791;47.246;9.648;2024-02-28T00:13:36;44.20;;;22.87;;
15385;SDS011;7791;47.246;9.648;2024-02-28T00:16:09;43.83;;;23.30;;
15385;SDS011;7791;47.246;9.648;2024-02-28T00:18:55;43.43;;;22.97;;
15385;SDS011;7791;47.246;9.648;2024-02-28T00:21:42;45.23;;;23.17;;
15385;SDS011;7791;47.246;9.648;2024-02-28T00:27:06;45.60;;;25.03;;
15385;SDS011;7791;47.246;9.648;2024-02-28T00:29:40;46.13;;;24.57;;
15385;SDS011;7791;47.246;9.648;2024-02-28T00:32:20;48.10;;;24.20;;
15385;SDS011;7791;47.246;9.648;2024-02-28T00:35:06;40.10;;;22.20;;
15385;SDS011;7791;47.246;9.648;2024-02-28T00:37:37;43.93;;;23.27;;
15385;SDS011;7791;47.246;9.648;2024-02-28T00:40:05;50.03;;;25.17;;
15385;SDS011;7791;47.246;9.648;2024-02-28T00:43:04;46.73;;;24.63;;
15385;SDS011;7791;47.246;9.648;2024-02-28T00:45:44;47.80;;;24.73;;
15385;SDS011;7791;47.246;9.648;2024-02-28T00:51:01;48.30;;;24.17;;
15385;SDS011;7791;47.246;9.648;2024-02-28T00:56:30;45.80;;;23.23;;
15385;SDS011;7791;47.246;9.648;2024-02-28T00:59:14;43.13;;;21.47;;
15385;SDS011;7791;47.246;9.648;2024-02-28T01:01:47;38.50;;;20.90;;
15385;SDS011;7791;47.246;9.648;2024-02-28T01:04:39;37.20;;;19.83;;
15385;SDS011;7791;47.246;9.648;2024-02-28T01:07:39;42.07;;;22.50;;
15385;SDS011;7791;47.246;9.648;2024-02-28T01:10:27;45.67;;;23.13;;
15385;SDS011;7791;47.246;9.648;2024-02-28T01:13:04;44.93;;;22.70;;
15385;SDS011;7791;47.246;9.648;2024-02-28T01:15:38;43.10;;;23.07;;
15385;SDS011;7791;47.246;9.648;2024-02-28T01:18:27;41.30;;;22.13;;
15385;SDS011;7791;47.246;9.648;2024-02-28T01:21:27;45.80;;;22.87;;
15385;SDS011;7791;47.246;9.648;2024-02-28T01:29:44;49.10;;;25.77;;
15385;SDS011;7791;47.246;9.648;2024-02-28T01:35:05;53.67;;;27.20;;
15385;SDS011;7791;47.246;9.648;2024-02-28T01:37:51;48.23;;;25.83;;
15385;SDS011;7791;47.246;9.648;2024-02-28T01:40:49;54.90;;;25.97;;
15385;SDS011;7791;47.246;9.648;2024-02-28T01:43:22;49.53;;;26.40;;
15385;SDS011;7791;47.246;9.648;2024-02-28T01:45:58;47.17;;;25.47;;
15385;SDS011;7791;47.246;9.648;2024-02-28T01:48:35;49.57;;;23.50;;
15385;SDS011;7791;47.246;9.648;2024-02-28T01:51:03;46.40;;;24.50;;
15385;SDS011;7791;47.246;9.648;2024-02-28T01:53:41;46.27;;;24.13;;
15385;SDS011;7791;47.246;9.648;2024-02-28T01:58:56;41.30;;;21.37;;
15385;SDS011;7791;47.246;9.648;2024-02-28T02:01:24;38.83;;;21.03;;
15385;SDS011;7791;47.246;9.648;2024-02-28T02:04:15;48.77;;;22.97;;
15385;SDS011;7791;47.246;9.648;2024-02-28T02:06:57;42.63;;;22.13;;
15385;SDS011;7791;47.246;9.648;2024-02-28T02:09:34;43.30;;;22.50;;
15385;SDS011;7791;47.246;9.648;2024-02-28T02:12:27;44.40;;;23.07;;
15385;SDS011;7791;47.246;9.648;2024-02-28T02:15:07;40.83;;;20.87;;
15385;SDS011;7791;47.246;9.648;2024-02-28T02:18:01;39.53;;;20.73;;
15385;SDS011;7791;47.246;9.648;2024-02-28T02:20:50;41.90;;;21.27;;
15385;SDS011;7791;47.246;9.648;2024-02-28T02:23:41;42.17;;;21.23;;
15385;SDS011;7791;47.246;9.648;2024-02-28T02:26:18;46.97;;;23.70;;
15385;SDS011;7791;47.246;9.648;2024-02-28T02:28:45;45.87;;;22.33;;
15385;SDS011;7791;47.246;9.648;2024-02-28T02:31:20;48.43;;;23.67;;
15385;SDS011;7791;47.246;9.648;2024-02-28T02:33:51;48.83;;;24.57;;
15385;SDS011;7791;47.246;9.648;2024-02-28T02:36:34;46.27;;;24.43;;
15385;SDS011;7791;47.246;9.648;2024-02-28T02:39:18;45.80;;;23.53;;
15385;SDS011;7791;47.246;9.648;2024-02-28T02:42:12;46.57;;;23.47;;
15385;SDS011;7791;47.246;9.648;2024-02-28T02:44:57;47.17;;;23.13;;
15385;SDS011;7791;47.246;9.648;2024-02-28T02:47:26;48.63;;;25.33;;
15385;SDS011;7791;47.246;9.648;2024-02-28T02:49:59;51.83;;;25.13;;
15385;SDS011;7791;47.246;9.648;2024-02-28T02:52:33;47.57;;;24.93;;
15385;SDS011;7791;47.246;9.648;2024-02-28T02:55:07;45.40;;;23.47;;
15385;SDS011;7791;47.246;9.648;2024-02-28T02:57:53;46.43;;;24.40;;
15385;SDS011;7791;47.246;9.648;2024-02-28T03:00:39;47.03;;;23.87;;
15385;SDS011;7791;47.246;9.648;2024-02-28T03:03:17;43.13;;;23.57;;
15385;SDS011;7791;47.246;9.648;2024-02-28T03:06:03;48.50;;;24.27;;
15385;SDS011;7791;47.246;9.648;2024-02-28T03:08:33;46.57;;;25.10;;
15385;SDS011;7791;47.246;9.648;2024-02-28T03:16:47;49.20;;;22.27;;
15385;SDS011;7791;47.246;9.648;2024-02-28T03:19:30;45.57;;;24.17;;
15385;SDS011;7791;47.246;9.648;2024-02-28T03:22:03;42.40;;;22.90;;
15385;SDS011;7791;47.246;9.648;2024-02-28T03:24:38;47.03;;;22.57;;
15385;SDS011;7791;47.246;9.648;2024-02-28T03:27:16;46.23;;;23.53;;
15385;SDS011;7791;47.246;9.648;2024-02-28T03:29:52;51.20;;;25.67;;
15385;SDS011;7791;47.246;9.648;2024-02-28T03:32:47;46.53;;;24.00;;
15385;SDS011;7791;47.246;9.648;2024-02-28T03:35:32;46.83;;;23.87;;
15385;SDS011;7791;47.246;9.648;2024-02-28T03:38:21;44.83;;;23.20;;
15385;SDS011;7791;47.246;9.648;2024-02-28T03:41:03;46.20;;;24.20;;
15385;SDS011;7791;47.246;9.648;2024-02-28T03:46:49;45.60;;;23.23;;
15385;SDS011;7791;47.246;9.648;2024-02-28T03:49:25;46.77;;;22.70;;
15385;SDS011;7791;47.246;9.648;2024-02-28T03:52:03;46.50;;;23.27;;
15385;SDS011;7791;47.246;9.648;2024-02-28T03:54:33;43.13;;;22.07;;
15385;SDS011;7791;47.246;9.648;2024-02-28T03:57:07;46.73;;;23.67;;
15385;SDS011;7791;47.246;9.648;2024-02-28T03:59:42;45.90;;;23.67;;
15385;SDS011;7791;47.246;9.648;2024-02-28T04:05:21;46.30;;;23.20;;
15385;SDS011;7791;47.246;9.648;2024-02-28T04:07:52;47.97;;;23.33;;
15385;SDS011;7791;47.246;9.648;2024-02-28T04:13:09;48.17;;;23.83;;
15385;SDS011;7791;47.246;9.648;2024-02-28T04:15:52;45.13;;;23.80;;
15385;SDS011;7791;47.246;9.648;2024-02-28T04:18:41;46.33;;;23.10;;
15385;SDS011;7791;47.246;9.648;2024-02-28T04:21:23;47.07;;;23.33;;
15385;SDS011;7791;47.246;9.648;2024-02-28T04:24:13;49.03;;;24.70;;
15385;SDS011;7791;47.246;9.648;2024-02-28T04:29:49;48.90;;;23.63;;
15385;SDS011;7791;47.246;9.648;2024-02-28T04:32:18;48.53;;;23.73;;
15385;SDS011;7791;47.246;9.648;2024-02-28T04:40:30;46.17;;;22.90;;
15385;SDS011;7791;47.246;9.648;2024-02-28T04:42:56;47.70;;;24.27;;
15385;SDS011;7791;47.246;9.648;2024-02-28T04:45:51;49.83;;;23.63;;
15385;SDS011;7791;47.246;9.648;2024-02-28T04:48:38;48.73;;;24.80;;
15385;SDS011;7791;47.246;9.648;2024-02-28T04:51:18;53.47;;;24.70;;
15385;SDS011;7791;47.246;9.648;2024-02-28T04:54:04;49.33;;;25.30;;
15385;SDS011;7791;47.246;9.648;2024-02-28T04:56:41;48.70;;;24.70;;
15385;SDS011;7791;47.246;9.648;2024-02-28T04:59:06;51.20;;;25.53;;
15385;SDS011;7791;47.246;9.648;2024-02-28T05:01:42;52.17;;;26.03;;
15385;SDS011;7791;47.246;9.648;2024-02-28T05:04:25;51.20;;;25.40;;
15385;SDS011;7791;47.246;9.648;2024-02-28T05:10:10;51.33;;;25.47;;
15385;SDS011;7791;47.246;9.648;2024-02-28T05:15:37;52.53;;;25.47;;
15385;SDS011;7791;47.246;9.648;2024-02-28T05:18:09;49.47;;;25.23;;
15385;SDS011;7791;47.246;9.648;2024-02-28T05:20:42;49.77;;;25.83;;
15385;SDS011;7791;47.246;9.648;2024-02-28T05:23:10;49.40;;;25.00;;
15385;SDS011;7791;47.246;9.648;2024-02-28T05:25:41;53.20;;;26.90;;
15385;SDS011;7791;47.246;9.648;2024-02-28T05:30:58;57.67;;;26.80;;
15385;SDS011;7791;47.246;9.648;2024-02-28T05:33:50;53.13;;;26.40;;
15385;SDS011;7791;47.246;9.648;2024-02-28T05:36:49;51.73;;;26.70;;
15385;SDS011;7791;47.246;9.648;2024-02-28T05:39:23;56.00;;;26.27;;
15385;SDS011;7791;47.246;9.648;2024-02-28T05:41:55;60.10;;;27.90;;
15385;SDS011;7791;47.246;9.648;2024-02-28T05:44:28;51.57;;;24.53;;
15385;SDS011;7791;47.246;9.648;2024-02-28T05:52:22;51.97;;;24.23;;
15385;SDS011;7791;47.246;9.648;2024-02-28T05:57:47;52.80;;;25.10;;
15385;SDS011;7791;47.246;9.648;2024-02-28T06:03:04;52.77;;;25.63;;
15385;SDS011;7791;47.246;9.648;2024-02-28T06:05:46;50.20;;;25.67;;
15385;SDS011;7791;47.246;9.648;2024-02-28T06:08:22;53.13;;;26.30;;
15385;SDS011;7791;47.246;9.648;2024-02-28T06:11:01;50.50;;;25.67;;
15385;SDS011;7791;47.246;9.648;2024-02-28T06:13:45;48.63;;;25.13;;
15385;SDS011;7791;47.246;9.648;2024-02-28T06:16:39;46.80;;;23.10;;
15385;SDS011;7791;47.246;9.648;2024-02-28T06:19:21;51.77;;;24.57;;
15385;SDS011;7791;47.246;9.648;2024-02-28T06:21:55;52.90;;;24.83;;
15385;SDS011;7791;47.246;9.648;2024-02-28T06:24:33;53.10;;;25.73;;
15385;SDS011;7791;47.246;9.648;2024-02-28T06:27:09;49.97;;;25.03;;
15385;SDS011;7791;47.246;9.648;2024-02-28T06:29:43;52.37;;;25.27;;
15385;SDS011;7791;47.246;9.648;2024-02-28T06:32:23;48.23;;;24.67;;
15385;SDS011;7791;47.246;9.648;2024-02-28T06:35:09;48.53;;;24.20;;
15385;SDS011;7791;47.246;9.648;2024-02-28T06:37:40;47.57;;;24.43;;
15385;SDS011;7791;47.246;9.648;2024-02-28T06:40:19;50.13;;;25.17;;
15385;SDS011;7791;47.246;9.648;2024-02-28T06:42:56;49.17;;;25.07;;
15385;SDS011;7791;47.246;9.648;2024-02-28T06:48:21;53.13;;;25.43;;
15385;SDS011;7791;47.246;9.648;2024-02-28T06:50:58;48.23;;;24.63;;
15385;SDS011;7791;47.246;9.648;2024-02-28T06:53:29;55.33;;;26.30;;
15385;SDS011;7791;47.246;9.648;2024-02-28T06:56:13;50.73;;;25.00;;
15385;SDS011;7791;47.246;9.648;2024-02-28T07:01:38;48.57;;;25.50;;
15385;SDS011;7791;47.246;9.648;2024-02-28T07:04:16;51.17;;;24.90;;
15385;SDS011;7791;47.246;9.648;2024-02-28T07:06:44;53.20;;;25.43;;
15385;SDS011;7791;47.246;9.648;2024-02-28T07:09:26;50.70;;;26.33;;
15385;SDS011;7791;47.246;9.648;2024-02-28T07:12:13;46.40;;;24.90;;
15385;SDS011;7791;47.246;9.648;2024-02-28T07:14:56;53.47;;;25.97;;
15385;SDS011;7791;47.246;9.648;2024-02-28T07:17:38;53.10;;;27.13;;
15385;SDS011;7791;47.246;9.648;2024-02-28T07:20:11;58.93;;;27.20;;
15385;SDS011;7791;47.246;9.648;2024-02-28T07:23:02;61.83;;;29.03;;
15385;SDS011;7791;47.246;9.648;2024-02-28T07:25:44;52.67;;;28.37;;
15385;SDS011;7791;47.246;9.648;2024-02-28T07:28:31;57.40;;;29.13;;
15385;SDS011;7791;47.246;9.648;2024-02-28T07:31:04;56.60;;;28.63;;
15385;SDS011;7791;47.246;9.648;2024-02-28T07:33:46;53.63;;;28.37;;
15385;SDS011;7791;47.246;9.648;2024-02-28T07:36:34;53.80;;;28.57;;
15385;SDS011;7791;47.246;9.648;2024-02-28T07:39:12;57.30;;;27.67;;
15385;SDS011;7791;47.246;9.648;2024-02-28T07:41:47;55.90;;;28.33;;
15385;SDS011;7791;47.246;9.648;2024-02-28T07:44:26;58.73;;;28.03;;
15385;SDS011;7791;47.246;9.648;2024-02-28T07:47:14;51.90;;;27.53;;
15385;SDS011;7791;47.246;9.648;2024-02-28T07:49:56;55.33;;;27.27;;
15385;SDS011;7791;47.246;9.648;2024-02-28T07:52:32;50.47;;;26.90;;
15385;SDS011;7791;47.246;9.648;2024-02-28T07:55:02;54.73;;;27.80;;
15385;SDS011;7791;47.246;9.648;2024-02-28T07:57:47;49.20;;;26.63;;
15385;SDS011;7791;47.246;9.648;2024-02-28T08:00:36;50.37;;;26.33;;
15385;SDS011;7791;47.246;9.648;2024-02-28T08:06:21;52.30;;;25.90;;
15385;SDS011;7791;47.246;9.648;2024-02-28T08:09:09;56.33;;;27.07;;
15385;SDS011;7791;47.246;9.648;2024-02-28T08:11:44;53.23;;;28.07;;
15385;SDS011;7791;47.246;9.648;2024-02-28T08:14:24;48.43;;;25.90;;
15385;SDS011;7791;47.246;9.648;2024-02-28T08:19:59;50.57;;;26.80;;
15385;SDS011;7791;47.246;9.648;2024-02-28T08:22:41;47.67;;;25.57;;
15385;SDS011;7791;47.246;9.648;2024-02-28T08:25:17;50.77;;;26.83;;
15385;SDS011;7791;47.246;9.648;2024-02-28T08:28:04;50.90;;;25.90;;
15385;SDS011;7791;47.246;9.648;2024-02-28T08:33:25;56.30;;;28.80;;
15385;SDS011;7791;47.246;9.648;2024-02-28T08:35:55;54.53;;;29.60;;
15385;SDS011;7791;47.246;9.648;2024-02-28T08:38:37;52.03;;;27.20;;
15385;SDS011;7791;47.246;9.648;2024-02-28T08:41:24;50.73;;;26.87;;
15385;SDS011;7791;47.246;9.648;2024-02-28T08:44:05;48.23;;;26.40;;
15385;SDS011;7791;47.246;9.648;2024-02-28T08:46:50;51.00;;;27.57;;
15385;SDS011;7791;47.246;9.648;2024-02-28T08:49:31;51.80;;;27.50;;
15385;SDS011;7791;47.246;9.648;2024-02-28T08:52:26;51.07;;;26.77;;
15385;SDS011;7791;47.246;9.648;2024-02-28T08:54:58;50.20;;;26.70;;
15385;SDS011;7791;47.246;9.648;2024-02-28T08:57:45;49.37;;;25.80;;
15385;SDS011;7791;47.246;9.648;2024-02-28T09:00:22;49.07;;;25.87;;
15385;SDS011;7791;47.246;9.648;2024-02-28T09:02:57;48.83;;;24.27;;
15385;SDS011;7791;47.246;9.648;2024-02-28T09:05:31;48.30;;;26.10;;
15385;SDS011;7791;47.246;9.648;2024-02-28T09:08:14;46.37;;;25.13;;
15385;SDS011;7791;47.246;9.648;2024-02-28T09:10:59;47.13;;;23.60;;
15385;SDS011;7791;47.246;9.648;2024-02-28T09:13:38;47.10;;;24.47;;
15385;SDS011;7791;47.246;9.648;2024-02-28T09:16:21;45.10;;;23.97;;
15385;SDS011;7791;47.246;9.648;2024-02-28T09:19:02;46.67;;;24.77;;
15385;SDS011;7791;47.246;9.648;2024-02-28T09:21:46;62.43;;;31.00;;
15385;SDS011;7791;47.246;9.648;2024-02-28T09:27:22;45.70;;;23.97;;
15385;SDS011;7791;47.246;9.648;2024-02-28T09:35:43;44.73;;;23.43;;
15385;SDS011;7791;47.246;9.648;2024-02-28T09:38:28;49.57;;;24.53;;
15385;SDS011;7791;47.246;9.648;2024-02-28T09:41:16;40.13;;;23.27;;
15385;SDS011;7791;47.246;9.648;2024-02-28T09:43:48;45.03;;;23.10;;
15385;SDS011;7791;47.246;9.648;2024-02-28T09:46:26;42.93;;;24.70;;
15385;SDS011;7791;47.246;9.648;2024-02-28T09:49:13;45.37;;;24.80;;
15385;SDS011;7791;47.246;9.648;2024-02-28T09:51:59;43.90;;;24.20;;
15385;SDS011;7791;47.246;9.648;2024-02-28T09:54:30;44.33;;;24.17;;
15385;SDS011;7791;47.246;9.648;2024-02-28T10:00:08;44.30;;;22.80;;
15385;SDS011;7791;47.246;9.648;2024-02-28T10:02:39;41.70;;;23.27;;
15385;SDS011;7791;47.246;9.648;2024-02-28T10:05:16;43.37;;;23.10;;
15385;SDS011;7791;47.246;9.648;2024-02-28T10:08:02;41.70;;;22.33;;
15385;SDS011;7791;47.246;9.648;2024-02-28T10:10:32;41.30;;;22.77;;
15385;SDS011;7791;47.246;9.648;2024-02-28T10:15:54;42.27;;;22.43;;
15385;SDS011;7791;47.246;9.648;2024-02-28T10:18:37;41.50;;;23.27;;
15385;SDS011;7791;47.246;9.648;2024-02-28T10:21:26;39.33;;;23.23;;
15385;SDS011;7791;47.246;9.648;2024-02-28T10:26:50;41.37;;;23.37;;
15385;SDS011;7791;47.246;9.648;2024-02-28T10:32:31;40.80;;;23.23;;
15385;SDS011;7791;47.246;9.648;2024-02-28T10:35:05;41.97;;;23.27;;
15385;SDS011;7791;47.246;9.648;2024-02-28T10:37:41;41.70;;;23.00;;
15385;SDS011;7791;47.246;9.648;2024-02-28T10:40:21;41.37;;;23.40;;
15385;SDS011;7791;47.246;9.648;2024-02-28T10:45:40;40.37;;;22.10;;
15385;SDS011;7791;47.246;9.648;2024-02-28T10:48:23;40.70;;;22.83;;
15385;SDS011;7791;47.246;9.648;2024-02-28T10:50:58;40.77;;;22.63;;
15385;SDS011;7791;47.246;9.648;2024-02-28T10:53:42;37.47;;;21.63;;
15385;SDS011;7791;47.246;9.648;2024-02-28T10:56:22;42.07;;;23.00;;
15385;SDS011;7791;47.246;9.648;2024-02-28T11:01:43;40.30;;;22.10;;
15385;SDS011;7791;47.246;9.648;2024-02-28T11:04:22;41.27;;;22.53;;
15385;SDS011;7791;47.246;9.648;2024-02-28T11:07:07;40.80;;;21.83;;
15385;SDS011;7791;47.246;9.648;2024-02-28T11:09:46;39.63;;;23.03;;
15385;SDS011;7791;47.246;9.648;2024-02-28T11:12:29;41.90;;;22.73;;
15385;SDS011;7791;47.246;9.648;2024-02-28T11:14:57;42.83;;;23.03;;
15385;SDS011;7791;47.246;9.648;2024-02-28T11:17:32;41.57;;;22.53;;
15385;SDS011;7791;47.246;9.648;2024-02-28T11:20:12;43.13;;;22.90;;
15385;SDS011;7791;47.246;9.648;2024-02-28T11:26:13;50.03;;;25.57;;
15385;SDS011;7791;47.246;9.648;2024-02-28T11:28:56;44.63;;;24.43;;
15385;SDS011;7791;47.246;9.648;2024-02-28T11:31:37;46.10;;;25.13;;
15385;SDS011;7791;47.246;9.648;2024-02-28T11:34:14;48.57;;;24.40;;
15385;SDS011;7791;47.246;9.648;2024-02-28T11:37:18;51.17;;;25.47;;
15385;SDS011;7791;47.246;9.648;2024-02-28T11:39:48;44.33;;;24.10;;
15385;SDS011;7791;47.246;9.648;2024-02-28T11:42:22;44.70;;;23.87;;
15385;SDS011;7791;47.246;9.648;2024-02-28T11:44:57;48.40;;;24.43;;
15385;SDS011;7791;47.246;9.648;2024-02-28T11:50:16;48.43;;;25.90;;
15385;SDS011;7791;47.246;9.648;2024-02-28T11:52:48;48.13;;;25.67;;
15385;SDS011;7791;47.246;9.648;2024-02-28T11:55:21;43.83;;;24.07;;
15385;SDS011;7791;47.246;9.648;2024-02-28T11:57:57;44.43;;;24.80;;
15385;SDS011;7791;47.246;9.648;2024-02-28T12:00:35;40.70;;;22.97;;
15385;SDS011;7791;47.246;9.648;2024-02-28T12:03:29;44.90;;;24.30;;
15385;SDS011;7791;47.246;9.648;2024-02-28T12:09:15;44.93;;;24.60;;
15385;SDS011;7791;47.246;9.648;2024-02-28T12:11:55;41.90;;;23.20;;
15385;SDS011;7791;47.246;9.648;2024-02-28T12:14:37;41.53;;;22.03;;
15385;SDS011;7791;47.246;9.648;2024-02-28T12:17:07;41.00;;;22.60;;
15385;SDS011;7791;47.246;9.648;2024-02-28T12:19:53;44.90;;;23.73;;
15385;SDS011;7791;47.246;9.648;2024-02-28T12:25:33;44.30;;;24.43;;
15385;SDS011;7791;47.246;9.648;2024-02-28T12:31:00;39.07;;;22.27;;
15385;SDS011;7791;47.246;9.648;2024-02-28T12:35:12;42.53;;;23.07;;
15385;SDS011;7791;47.246;9.648;2024-02-28T12:36:30;44.17;;;22.83;;
15385;SDS011;7791;47.246;9.648;2024-02-28T12:39:16;41.70;;;22.83;;
15385;SDS011;7791;47.246;9.648;2024-02-28T12:42:10;38.33;;;21.10;;
15385;SDS011;7791;47.246;9.648;2024-02-28T12:44:52;39.33;;;21.83;;
15385;SDS011;7791;47.246;9.648;2024-02-28T12:50:35;40.17;;;22.67;;
15385;SDS011;7791;47.246;9.648;2024-02-28T12:53:25;40.27;;;21.90;;
15385;SDS011;7791;47.246;9.648;2024-02-28T12:55:53;39.37;;;22.00;;
15385;SDS011;7791;47.246;9.648;2024-02-28T12:58:31;41.50;;;22.33;;
15385;SDS011;7791;47.246;9.648;2024-02-28T13:01:08;39.97;;;21.80;;
15385;SDS011;7791;47.246;9.648;2024-02-28T13:04:00;40.57;;;21.90;;
15385;SDS011;7791;47.246;9.648;2024-02-28T13:06:45;38.77;;;21.03;;
15385;SDS011;7791;47.246;9.648;2024-02-28T13:09:23;38.73;;;21.00;;
15385;SDS011;7791;47.246;9.648;2024-02-28T13:14:52;39.37;;;20.90;;
15385;SDS011;7791;47.246;9.648;2024-02-28T13:17:25;39.27;;;20.30;;
15385;SDS011;7791;47.246;9.648;2024-02-28T13:19:55;36.80;;;20.07;;
15385;SDS011;7791;47.246;9.648;2024-02-28T13:22:35;36.03;;;19.43;;
15385;SDS011;7791;47.246;9.648;2024-02-28T13:25:14;38.57;;;19.80;;
15385;SDS011;7791;47.246;9.648;2024-02-28T13:27:55;35.60;;;18.43;;
15385;SDS011;7791;47.246;9.648;2024-02-28T13:33:38;39.80;;;21.53;;
15385;SDS011;7791;47.246;9.648;2024-02-28T13:36:16;41.37;;;22.13;;
15385;SDS011;7791;47.246;9.648;2024-02-28T13:39:01;48.37;;;23.77;;
15385;SDS011;7791;47.246;9.648;2024-02-28T13:41:44;52.30;;;24.90;;
15385;SDS011;7791;47.246;9.648;2024-02-28T13:44:27;51.17;;;25.03;;
15385;SDS011;7791;47.246;9.648;2024-02-28T13:47:03;50.07;;;24.97;;
15385;SDS011;7791;47.246;9.648;2024-02-28T13:49:31;54.97;;;27.60;;
15385;SDS011;7791;47.246;9.648;2024-02-28T13:52:02;54.27;;;27.00;;
15385;SDS011;7791;47.246;9.648;2024-02-28T13:54:46;52.03;;;24.93;;
15385;SDS011;7791;47.246;9.648;2024-02-28T13:57:16;53.97;;;25.97;;
15385;SDS011;7791;47.246;9.648;2024-02-28T13:59:55;54.80;;;26.63;;
15385;SDS011;7791;47.246;9.648;2024-02-28T14:02:50;57.13;;;26.20;;
15385;SDS011;7791;47.246;9.648;2024-02-28T14:05:54;58.43;;;26.93;;
15385;SDS011;7791;47.246;9.648;2024-02-28T14:08:29;55.13;;;27.67;;
15385;SDS011;7791;47.246;9.648;2024-02-28T14:11:09;58.97;;;28.07;;
15385;SDS011;7791;47.246;9.648;2024-02-28T14:13:35;57.50;;;25.90;;
15385;SDS011;7791;47.246;9.648;2024-02-28T14:16:05;57.37;;;25.93;;
15385;SDS011;7791;47.246;9.648;2024-02-28T14:18:44;55.97;;;26.57;;
15385;SDS011;7791;47.246;9.648;2024-02-28T14:21:21;54.03;;;26.63;;
15385;SDS011;7791;47.246;9.648;2024-02-28T14:24:07;57.47;;;26.63;;
15385;SDS011;7791;47.246;9.648;2024-02-28T14:26:45;57.73;;;26.67;;
15385;SDS011;7791;47.246;9.648;2024-02-28T14:29:23;59.43;;;25.77;;
15385;SDS011;7791;47.246;9.648;2024-02-28T14:32:00;56.03;;;26.03;;
15385;SDS011;7791;47.246;9.648;2024-02-28T14:34:45;59.03;;;26.57;;
15385;SDS011;7791;47.246;9.648;2024-02-28T14:37:13;58.03;;;27.63;;
15385;SDS011;7791;47.246;9.648;2024-02-28T14:39:46;57.43;;;26.17;;
15385;SDS011;7791;47.246;9.648;2024-02-28T14:45:01;61.73;;;25.73;;
15385;SDS011;7791;47.246;9.648;2024-02-28T14:47:58;55.03;;;26.27;;
15385;SDS011;7791;47.246;9.648;2024-02-28T14:50:30;55.10;;;25.60;;
15385;SDS011;7791;47.246;9.648;2024-02-28T14:53:02;58.57;;;26.00;;
15385;SDS011;7791;47.246;9.648;2024-02-28T14:55:36;60.33;;;26.60;;
15385;SDS011;7791;47.246;9.648;2024-02-28T14:58:09;56.60;;;25.33;;
15385;SDS011;7791;47.246;9.648;2024-02-28T15:00:39;56.03;;;25.77;;
15385;SDS011;7791;47.246;9.648;2024-02-28T15:03:15;58.07;;;26.03;;
15385;SDS011;7791;47.246;9.648;2024-02-28T15:05:52;58.37;;;25.70;;
15385;SDS011;7791;47.246;9.648;2024-02-28T15:08:23;53.90;;;25.63;;
15385;SDS011;7791;47.246;9.648;2024-02-28T15:11:08;58.63;;;25.93;;
15385;SDS011;7791;47.246;9.648;2024-02-28T15:13:44;60.40;;;26.57;;
15385;SDS011;7791;47.246;9.648;2024-02-28T15:19:06;55.67;;;25.50;;
15385;SDS011;7791;47.246;9.648;2024-02-28T15:21:37;61.13;;;26.73;;
15385;SDS011;7791;47.246;9.648;2024-02-28T15:27:02;62.80;;;26.17;;
15385;SDS011;7791;47.246;9.648;2024-02-28T15:29:35;67.00;;;26.80;;
15385;SDS011;7791;47.246;9.648;2024-02-28T15:32:03;55.10;;;25.27;;
15385;SDS011;7791;47.246;9.648;2024-02-28T15:34:39;62.73;;;27.80;;
15385;SDS011;7791;47.246;9.648;2024-02-28T15:37:10;59.17;;;25.90;;
15385;SDS011;7791;47.246;9.648;2024-02-28T15:42:50;60.87;;;26.50;;
15385;SDS011;7791;47.246;9.648;2024-02-28T15:45:43;60.67;;;27.67;;
15385;SDS011;7791;47.246;9.648;2024-02-28T15:48:18;62.47;;;28.37;;
15385;SDS011;7791;47.246;9.648;2024-02-28T15:51:02;62.97;;;28.00;;
15385;SDS011;7791;47.246;9.648;2024-02-28T15:53:33;54.97;;;25.73;;
15385;SDS011;7791;47.246;9.648;2024-02-28T15:56:11;60.87;;;26.60;;
15385;SDS011;7791;47.246;9.648;2024-02-28T16:01:46;64.00;;;26.83;;
15385;SDS011;7791;47.246;9.648;2024-02-28T16:04:17;62.23;;;27.27;;
15385;SDS011;7791;47.246;9.648;2024-02-28T16:06:57;63.73;;;25.87;;
15385;SDS011;7791;47.246;9.648;2024-02-28T16:09:35;61.53;;;26.70;;
15385;SDS011;7791;47.246;9.648;2024-02-28T16:12:04;55.37;;;26.23;;
15385;SDS011;7791;47.246;9.648;2024-02-28T16:14:35;61.97;;;26.27;;
15385;SDS011;7791;47.246;9.648;2024-02-28T16:17:22;58.97;;;26.33;;
15385;SDS011;7791;47.246;9.648;2024-02-28T16:19:59;58.80;;;26.23;;
15385;SDS011;7791;47.246;9.648;2024-02-28T16:22:42;62.20;;;25.57;;
15385;SDS011;7791;47.246;9.648;2024-02-28T16:28:20;65.73;;;26.63;;
15385;SDS011;7791;47.246;9.648;2024-02-28T16:30:58;61.07;;;25.90;;
15385;SDS011;7791;47.246;9.648;2024-02-28T16:33:35;65.70;;;27.37;;
15385;SDS011;7791;47.246;9.648;2024-02-28T16:36:07;60.17;;;27.00;;
15385;SDS011;7791;47.246;9.648;2024-02-28T16:38:41;59.97;;;26.63;;
15385;SDS011;7791;47.246;9.648;2024-02-28T16:41:23;64.43;;;26.57;;
15385;SDS011;7791;47.246;9.648;2024-02-28T16:44:12;61.47;;;25.73;;
15385;SDS011;7791;47.246;9.648;2024-02-28T16:46:43;66.13;;;25.83;;
15385;SDS011;7791;47.246;9.648;2024-02-28T16:49:18;61.83;;;26.97;;
15385;SDS011;7791;47.246;9.648;2024-02-28T16:51:57;61.83;;;26.83;;
15385;SDS011;7791;47.246;9.648;2024-02-28T16:54:31;64.00;;;26.63;;
15385;SDS011;7791;47.246;9.648;2024-02-28T16:56:59;64.27;;;28.33;;
15385;SDS011;7791;47.246;9.648;2024-02-28T16:59:32;60.43;;;25.83;;
15385;SDS011;7791;47.246;9.648;2024-02-28T17:02:03;58.90;;;26.03;;
15385;SDS011;7791;47.246;9.648;2024-02-28T17:04:41;63.10;;;27.40;;
15385;SDS011;7791;47.246;9.648;2024-02-28T17:07:23;56.70;;;25.37;;
15385;SDS011;7791;47.246;9.648;2024-02-28T17:10:15;62.07;;;25.93;;
15385;SDS011;7791;47.246;9.648;2024-02-28T17:12:52;61.03;;;25.40;;
15385;SDS011;7791;47.246;9.648;2024-02-28T17:15:18;59.17;;;25.93;;
15385;SDS011;7791;47.246;9.648;2024-02-28T17:18:02;61.07;;;24.93;;
15385;SDS011;7791;47.246;9.648;2024-02-28T17:20:35;57.13;;;25.47;;
15385;SDS011;7791;47.246;9.648;2024-02-28T17:23:03;65.80;;;27.03;;
15385;SDS011;7791;47.246;9.648;2024-02-28T17:25:51;59.63;;;26.17;;
15385;SDS011;7791;47.246;9.648;2024-02-28T17:28:34;59.93;;;25.53;;
15385;SDS011;7791;47.246;9.648;2024-02-28T17:31:13;60.00;;;26.10;;
15385;SDS011;7791;47.246;9.648;2024-02-28T17:33:55;62.57;;;27.37;;
15385;SDS011;7791;47.246;9.648;2024-02-28T17:36:34;57.30;;;25.93;;
15385;SDS011;7791;47.246;9.648;2024-02-28T17:39:11;57.87;;;25.87;;
15385;SDS011;7791;47.246;9.648;2024-02-28T17:41:56;62.87;;;25.70;;
15385;SDS011;7791;47.246;9.648;2024-02-28T17:47:35;69.90;;;31.20;;
15385;SDS011;7791;47.246;9.648;2024-02-28T17:50:04;63.83;;;27.13;;
15385;SDS011;7791;47.246;9.648;2024-02-28T17:52:50;61.77;;;26.67;;
15385;SDS011;7791;47.246;9.648;2024-02-28T17:55:21;59.17;;;25.80;;
15385;SDS011;7791;47.246;9.648;2024-02-28T17:57:54;64.50;;;27.07;;
15385;SDS011;7791;47.246;9.648;2024-02-28T18:00:27;68.27;;;27.43;;
15385;SDS011;7791;47.246;9.648;2024-02-28T18:03:06;64.90;;;28.10;;
15385;SDS011;7791;47.246;9.648;2024-02-28T18:05:54;65.40;;;27.43;;
15385;SDS011;7791;47.246;9.648;2024-02-28T18:08:39;57.37;;;26.00;;